Minneapolis, MN

2:07 AM CDT on April 28, 2017 (GMT -0500)
RBC Plaza Weather | | Change Station

Elev 853 ft 44.98 °N, 93.27 °W | Updated 1 minute ago

Mostly Cloudy
Mostly Cloudy
32.9 °F
Feels Like 25 °F
N
10.0
Wind Variable Wind from West

Today
High -- | Low -- °F
--% Chance of Precip.
Yesterday
High -- | Low -- °F
Precip. -- in
Pressure 29.82 in
Visibility 10.0 miles
Clouds Overcast 4900 ft
Windchill 25 °F
Dew Point 28 °F
Humidity 83%
Rainfall 0.00 in
Snow Depth Not available.
6:06 AM 8:15 PM
Waxing Crescent, 5% visible
METAR KMIC 280553Z AUTO 27008KT 10SM OVC049 02/M04 A2979 RMK AO2 SLP096 T00171044 10017 20006 400171006 51013
Pressure 29.82 in
Visibility 10.0 miles
Clouds Overcast 4900 ft
Windchill 25 °F
Dew Point 28 °F
Humidity 83%
Rainfall 0.00 in
Snow Depth Not available.
6:06 AM 8:15 PM
Waxing Crescent, 5% visible
METAR KMIC 280553Z AUTO 27008KT 10SM OVC049 02/M04 A2979 RMK AO2 SLP096 T00171044 10017 20006 400171006 51013

Get Severe Weather Alerts

Thanks for signing up!

Be on the lookout for a verification email in your inbox.

You'll start receiving the daily forecast at 8 AM.

×

10-Day Weather Forecast

Almanac

Astronomy

Apr. 28, 2017 Rise Set
Actual Time
Civil Twilight
Nautical Twilight
Astronomical Twilight
Moon
Length of Visible Light
Length of Day
Tomorrow will be .
, % of the Moon is Illuminated

Today's Extremes

State Highs State Lows

Community

WunderPhotos

WunderBlog® & News

Nearby

Air Quality

  Air Quality AQ Index Pollutant
Not available.

Snow Depth

Station Depth Elevation

Earthquake Activity

City Distance Mag. Time & Date
Minimum magnitude displayed is 2.5.

Coastal Water Temperatures

Place Temperature

Stations

Nearby Weather Stations

Station Location Temp. Windchill Dew Point Humidity Wind Precip. Elev Updated Type
                   

Watches & Warnings

There are currently no watches in effect.